sensor_id;sensor_type;location;lat;lon;timestamp;temperature;humidity
16301;DHT22;8258;51.020;4.248;2023-06-26T00:00:04;22.40;99.90
16301;DHT22;8258;51.020;4.248;2023-06-26T00:02:32;22.40;99.90
16301;DHT22;8258;51.020;4.248;2023-06-26T00:30:54;21.70;99.90
16301;DHT22;8258;51.020;4.248;2023-06-26T00:33:21;21.70;99.90
16301;DHT22;8258;51.020;4.248;2023-06-26T00:35:48;21.70;99.90
16301;DHT22;8258;51.020;4.248;2023-06-26T00:38:14;21.60;99.90
16301;DHT22;8258;51.020;4.248;2023-06-26T00:40:42;21.60;99.90
16301;DHT22;8258;51.020;4.248;2023-06-26T00:43:10;21.50;99.90
16301;DHT22;8258;51.020;4.248;2023-06-26T00:45:36;21.40;99.90
16301;DHT22;8258;51.020;4.248;2023-06-26T00:48:05;21.30;99.90
16301;DHT22;8258;51.020;4.248;2023-06-26T00:50:32;21.30;99.90
16301;DHT22;8258;51.020;4.248;2023-06-26T00:52:59;21.30;99.90
16301;DHT22;8258;51.020;4.248;2023-06-26T00:55:27;21.30;99.90
16301;DHT22;8258;51.020;4.248;2023-06-26T00:57:54;21.20;99.90
16301;DHT22;8258;51.020;4.248;2023-06-26T01:00:21;21.20;99.90
16301;DHT22;8258;51.020;4.248;2023-06-26T01:02:48;21.30;99.90
16301;DHT22;8258;51.020;4.248;2023-06-26T01:05:17;21.20;99.90
16301;DHT22;8258;51.020;4.248;2023-06-26T01:07:47;21.10;99.90
16301;DHT22;8258;51.020;4.248;2023-06-26T01:10:14;21.10;99.90
16301;DHT22;8258;51.020;4.248;2023-06-26T01:12:41;21.10;99.90
16301;DHT22;8258;51.020;4.248;2023-06-26T01:15:09;21.10;99.90
16301;DHT22;8258;51.020;4.248;2023-06-26T01:17:37;21.00;99.90
16301;DHT22;8258;51.020;4.248;2023-06-26T01:20:05;21.00;99.90
16301;DHT22;8258;51.020;4.248;2023-06-26T01:22:42;20.90;99.90
16301;DHT22;8258;51.020;4.248;2023-06-26T01:25:18;20.90;99.90
16301;DHT22;8258;51.020;4.248;2023-06-26T01:27:50;20.90;99.90
16301;DHT22;8258;51.020;4.248;2023-06-26T01:30:17;20.80;99.90
16301;DHT22;8258;51.020;4.248;2023-06-26T01:32:46;20.80;99.90
16301;DHT22;8258;51.020;4.248;2023-06-26T01:35:15;20.90;99.90
16301;DHT22;8258;51.020;4.248;2023-06-26T01:37:42;20.90;99.90
16301;DHT22;8258;51.020;4.248;2023-06-26T01:40:10;20.80;99.90
16301;DHT22;8258;51.020;4.248;2023-06-26T01:42:37;20.80;99.90
16301;DHT22;8258;51.020;4.248;2023-06-26T01:45:12;20.70;99.90
16301;DHT22;8258;51.020;4.248;2023-06-26T01:47:41;20.70;99.90
16301;DHT22;8258;51.020;4.248;2023-06-26T01:50:16;20.70;99.90
16301;DHT22;8258;51.020;4.248;2023-06-26T01:52:50;20.60;99.90
16301;DHT22;8258;51.020;4.248;2023-06-26T01:55:25;20.40;99.90
16301;DHT22;8258;51.020;4.248;2023-06-26T01:57:56;20.40;99.90
16301;DHT22;8258;51.020;4.248;2023-06-26T02:00:26;20.30;99.90
16301;DHT22;8258;51.020;4.248;2023-06-26T02:02:53;20.30;99.90
16301;DHT22;8258;51.020;4.248;2023-06-26T02:05:20;20.30;99.90
16301;DHT22;8258;51.020;4.248;2023-06-26T02:07:49;20.30;99.90
16301;DHT22;8258;51.020;4.248;2023-06-26T02:10:16;20.30;99.90
16301;DHT22;8258;51.020;4.248;2023-06-26T02:12:44;20.30;99.90
16301;DHT22;8258;51.020;4.248;2023-06-26T02:15:11;20.20;99.90
16301;DHT22;8258;51.020;4.248;2023-06-26T02:17:39;20.20;99.90
16301;DHT22;8258;51.020;4.248;2023-06-26T02:20:07;20.20;99.90
16301;DHT22;8258;51.020;4.248;2023-06-26T02:22:35;20.20;99.90
16301;DHT22;8258;51.020;4.248;2023-06-26T02:25:02;20.20;99.90
16301;DHT22;8258;51.020;4.248;2023-06-26T02:27:29;20.20;99.90
16301;DHT22;8258;51.020;4.248;2023-06-26T02:29:56;20.20;99.90
16301;DHT22;8258;51.020;4.248;2023-06-26T02:32:23;20.20;99.90
16301;DHT22;8258;51.020;4.248;2023-06-26T02:34:51;20.10;99.90
16301;DHT22;8258;51.020;4.248;2023-06-26T02:47:40;19.60;99.90
16301;DHT22;8258;51.020;4.248;2023-06-26T02:50:09;19.50;99.90
16301;DHT22;8258;51.020;4.248;2023-06-26T02:52:36;19.50;99.90
16301;DHT22;8258;51.020;4.248;2023-06-26T02:55:05;19.40;99.90
16301;DHT22;8258;51.020;4.248;2023-06-26T03:26:02;18.90;99.90
16301;DHT22;8258;51.020;4.248;2023-06-26T03:28:29;18.80;99.90
16301;DHT22;8258;51.020;4.248;2023-06-26T03:30:56;18.70;99.90
16301;DHT22;8258;51.020;4.248;2023-06-26T03:33:23;18.70;99.90
16301;DHT22;8258;51.020;4.248;2023-06-26T03:35:50;18.70;99.90
16301;DHT22;8258;51.020;4.248;2023-06-26T03:38:17;18.60;99.90
16301;DHT22;8258;51.020;4.248;2023-06-26T03:40:44;18.60;99.90
16301;DHT22;8258;51.020;4.248;2023-06-26T03:43:12;18.50;99.90
16301;DHT22;8258;51.020;4.248;2023-06-26T03:45:39;18.50;99.90
16301;DHT22;8258;51.020;4.248;2023-06-26T03:48:06;18.50;99.90
16301;DHT22;8258;51.020;4.248;2023-06-26T03:50:33;18.50;99.90
16301;DHT22;8258;51.020;4.248;2023-06-26T03:53:00;18.40;99.90
16301;DHT22;8258;51.020;4.248;2023-06-26T04:47:49;18.20;99.90
16301;DHT22;8258;51.020;4.248;2023-06-26T04:55:47;18.20;99.90
16301;DHT22;8258;51.020;4.248;2023-06-26T04:58:15;18.30;99.90
16301;DHT22;8258;51.020;4.248;2023-06-26T05:00:43;18.40;99.90
16301;DHT22;8258;51.020;4.248;2023-06-26T05:03:11;18.40;99.90
16301;DHT22;8258;51.020;4.248;2023-06-26T05:05:42;18.40;99.90
16301;DHT22;8258;51.020;4.248;2023-06-26T05:08:16;18.30;99.90
16301;DHT22;8258;51.020;4.248;2023-06-26T05:10:44;18.40;99.90
16301;DHT22;8258;51.020;4.248;2023-06-26T05:13:12;18.30;99.90
16301;DHT22;8258;51.020;4.248;2023-06-26T05:15:42;18.30;99.90
16301;DHT22;8258;51.020;4.248;2023-06-26T05:20:42;18.60;99.90
16301;DHT22;8258;51.020;4.248;2023-06-26T05:23:11;18.60;99.90
16301;DHT22;8258;51.020;4.248;2023-06-26T05:25:38;18.50;99.90
16301;DHT22;8258;51.020;4.248;2023-06-26T05:28:06;18.60;99.90
16301;DHT22;8258;51.020;4.248;2023-06-26T05:30:36;18.70;99.90
16301;DHT22;8258;51.020;4.248;2023-06-26T05:33:03;18.80;99.90
16301;DHT22;8258;51.020;4.248;2023-06-26T05:35:31;18.80;99.90
16301;DHT22;8258;51.020;4.248;2023-06-26T05:38:00;18.80;99.90
16301;DHT22;8258;51.020;4.248;2023-06-26T05:40:28;18.90;99.90
16301;DHT22;8258;51.020;4.248;2023-06-26T05:42:55;19.00;99.90
16301;DHT22;8258;51.020;4.248;2023-06-26T05:45:22;18.90;99.90
16301;DHT22;8258;51.020;4.248;2023-06-26T05:47:49;18.90;99.90
16301;DHT22;8258;51.020;4.248;2023-06-26T05:50:18;19.00;99.90
16301;DHT22;8258;51.020;4.248;2023-06-26T05:52:45;19.00;99.90
16301;DHT22;8258;51.020;4.248;2023-06-26T05:55:15;19.00;99.90
16301;DHT22;8258;51.020;4.248;2023-06-26T05:57:42;19.10;99.90
16301;DHT22;8258;51.020;4.248;2023-06-26T06:00:10;19.20;99.90
16301;DHT22;8258;51.020;4.248;2023-06-26T06:02:37;19.30;99.90
16301;DHT22;8258;51.020;4.248;2023-06-26T06:05:05;19.50;99.90
16301;DHT22;8258;51.020;4.248;2023-06-26T06:07:33;19.50;99.90
16301;DHT22;8258;51.020;4.248;2023-06-26T06:10:00;19.60;99.90
16301;DHT22;8258;51.020;4.248;2023-06-26T06:12:29;19.60;99.90
16301;DHT22;8258;51.020;4.248;2023-06-26T06:14:56;19.50;99.90
16301;DHT22;8258;51.020;4.248;2023-06-26T06:17:23;19.50;99.90
16301;DHT22;8258;51.020;4.248;2023-06-26T06:19:50;19.60;99.90
16301;DHT22;8258;51.020;4.248;2023-06-26T06:22:17;19.80;99.90
16301;DHT22;8258;51.020;4.248;2023-06-26T06:24:44;20.10;99.90
16301;DHT22;8258;51.020;4.248;2023-06-26T06:27:11;20.20;99.90
16301;DHT22;8258;51.020;4.248;2023-06-26T06:29:40;20.10;99.90
16301;DHT22;8258;51.020;4.248;2023-06-26T06:32:07;20.20;99.90
16301;DHT22;8258;51.020;4.248;2023-06-26T06:34:34;20.40;99.90
16301;DHT22;8258;51.020;4.248;2023-06-26T06:37:02;20.50;99.90
16301;DHT22;8258;51.020;4.248;2023-06-26T06:39:29;20.40;99.90
16301;DHT22;8258;51.020;4.248;2023-06-26T06:41:56;20.30;99.90
16301;DHT22;8258;51.020;4.248;2023-06-26T06:44:23;20.50;99.90
16301;DHT22;8258;51.020;4.248;2023-06-26T06:46:51;20.50;99.90
16301;DHT22;8258;51.020;4.248;2023-06-26T06:49:18;20.50;99.90
16301;DHT22;8258;51.020;4.248;2023-06-26T06:51:45;20.50;99.90
16301;DHT22;8258;51.020;4.248;2023-06-26T06:54:12;20.60;99.90
16301;DHT22;8258;51.020;4.248;2023-06-26T06:56:39;20.70;99.90
16301;DHT22;8258;51.020;4.248;2023-06-26T06:59:06;20.70;99.90
16301;DHT22;8258;51.020;4.248;2023-06-26T07:01:33;20.90;99.90
16301;DHT22;8258;51.020;4.248;2023-06-26T07:04:01;21.00;99.90
16301;DHT22;8258;51.020;4.248;2023-06-26T07:06:29;21.20;99.90
16301;DHT22;8258;51.020;4.248;2023-06-26T07:08:56;21.40;99.90
16301;DHT22;8258;51.020;4.248;2023-06-26T07:11:23;21.40;99.90
16301;DHT22;8258;51.020;4.248;2023-06-26T07:13:50;21.40;99.90
16301;DHT22;8258;51.020;4.248;2023-06-26T07:16:17;21.40;99.90
16301;DHT22;8258;51.020;4.248;2023-06-26T07:18:44;21.30;99.90
16301;DHT22;8258;51.020;4.248;2023-06-26T07:21:12;21.40;99.90
16301;DHT22;8258;51.020;4.248;2023-06-26T07:23:39;21.30;99.90
16301;DHT22;8258;51.020;4.248;2023-06-26T07:26:06;21.70;99.90
16301;DHT22;8258;51.020;4.248;2023-06-26T07:28:33;22.20;99.90
16301;DHT22;8258;51.020;4.248;2023-06-26T07:30:59;22.70;99.90
16301;DHT22;8258;51.020;4.248;2023-06-26T07:33:26;22.80;99.90
16301;DHT22;8258;51.020;4.248;2023-06-26T07:35:53;23.20;99.90
16301;DHT22;8258;51.020;4.248;2023-06-26T07:38:22;23.40;99.90
16301;DHT22;8258;51.020;4.248;2023-06-26T07:40:48;23.60;99.90
16301;DHT22;8258;51.020;4.248;2023-06-26T07:43:16;24.10;99.90
16301;DHT22;8258;51.020;4.248;2023-06-26T07:45:42;24.60;99.90
16301;DHT22;8258;51.020;4.248;2023-06-26T07:48:10;24.90;99.90
16301;DHT22;8258;51.020;4.248;2023-06-26T07:50:37;25.40;99.90
16301;DHT22;8258;51.020;4.248;2023-06-26T07:53:04;25.70;99.90
16301;DHT22;8258;51.020;4.248;2023-06-26T07:55:33;26.10;99.90
16301;DHT22;8258;51.020;4.248;2023-06-26T07:58:00;26.50;99.90
16301;DHT22;8258;51.020;4.248;2023-06-26T08:00:27;26.30;99.90
16301;DHT22;8258;51.020;4.248;2023-06-26T08:02:53;26.10;99.90
16301;DHT22;8258;51.020;4.248;2023-06-26T08:05:20;26.50;99.90
16301;DHT22;8258;51.020;4.248;2023-06-26T08:07:47;27.00;99.50
16301;DHT22;8258;51.020;4.248;2023-06-26T08:10:14;27.20;98.30
16301;DHT22;8258;51.020;4.248;2023-06-26T08:12:43;27.20;96.60
16301;DHT22;8258;51.020;4.248;2023-06-26T08:15:10;27.10;96.40
16301;DHT22;8258;51.020;4.248;2023-06-26T08:17:38;26.60;97.10
16301;DHT22;8258;51.020;4.248;2023-06-26T08:20:06;26.50;97.00
16301;DHT22;8258;51.020;4.248;2023-06-26T08:22:34;26.80;95.20
16301;DHT22;8258;51.020;4.248;2023-06-26T08:25:02;27.30;95.20
16301;DHT22;8258;51.020;4.248;2023-06-26T08:27:29;28.00;94.60
16301;DHT22;8258;51.020;4.248;2023-06-26T08:29:57;27.90;93.60
16301;DHT22;8258;51.020;4.248;2023-06-26T08:32:24;27.50;93.80
16301;DHT22;8258;51.020;4.248;2023-06-26T08:34:51;26.80;95.30
16301;DHT22;8258;51.020;4.248;2023-06-26T08:37:18;26.50;95.80
16301;DHT22;8258;51.020;4.248;2023-06-26T08:39:45;26.90;95.10
16301;DHT22;8258;51.020;4.248;2023-06-26T08:42:12;27.20;94.10
16301;DHT22;8258;51.020;4.248;2023-06-26T08:44:39;27.10;94.70
16301;DHT22;8258;51.020;4.248;2023-06-26T08:47:09;27.20;93.30
16301;DHT22;8258;51.020;4.248;2023-06-26T08:49:43;27.20;94.30
16301;DHT22;8258;51.020;4.248;2023-06-26T08:52:17;28.30;92.50
16301;DHT22;8258;51.020;4.248;2023-06-26T08:54:46;27.70;92.30
16301;DHT22;8258;51.020;4.248;2023-06-26T08:57:17;26.90;94.30
16301;DHT22;8258;51.020;4.248;2023-06-26T08:59:45;26.50;93.40
16301;DHT22;8258;51.020;4.248;2023-06-26T09:02:14;26.80;92.10
16301;DHT22;8258;51.020;4.248;2023-06-26T09:04:41;27.30;92.40
16301;DHT22;8258;51.020;4.248;2023-06-26T09:07:08;28.00;91.60
16301;DHT22;8258;51.020;4.248;2023-06-26T09:09:35;28.60;90.30
16301;DHT22;8258;51.020;4.248;2023-06-26T09:12:04;27.80;91.00
16301;DHT22;8258;51.020;4.248;2023-06-26T09:14:31;27.50;90.10
16301;DHT22;8258;51.020;4.248;2023-06-26T09:16:58;26.90;91.20
16301;DHT22;8258;51.020;4.248;2023-06-26T09:19:26;26.70;91.90
16301;DHT22;8258;51.020;4.248;2023-06-26T09:21:54;26.80;91.10
16301;DHT22;8258;51.020;4.248;2023-06-26T09:24:21;27.50;89.80
16301;DHT22;8258;51.020;4.248;2023-06-26T09:26:50;28.50;82.40
16301;DHT22;8258;51.020;4.248;2023-06-26T09:29:17;28.90;80.80
16301;DHT22;8258;51.020;4.248;2023-06-26T09:31:44;26.90;85.00
16301;DHT22;8258;51.020;4.248;2023-06-26T09:34:11;25.90;90.60
16301;DHT22;8258;51.020;4.248;2023-06-26T09:36:39;25.90;91.10
16301;DHT22;8258;51.020;4.248;2023-06-26T09:39:10;26.10;91.50
16301;DHT22;8258;51.020;4.248;2023-06-26T09:41:38;27.50;86.70
16301;DHT22;8258;51.020;4.248;2023-06-26T09:44:05;28.50;84.00
16301;DHT22;8258;51.020;4.248;2023-06-26T09:46:33;29.80;70.50
16301;DHT22;8258;51.020;4.248;2023-06-26T09:49:05;30.40;62.80
16301;DHT22;8258;51.020;4.248;2023-06-26T09:51:37;29.50;64.40
16301;DHT22;8258;51.020;4.248;2023-06-26T09:54:06;29.60;65.50
16301;DHT22;8258;51.020;4.248;2023-06-26T09:56:33;29.00;66.50
16301;DHT22;8258;51.020;4.248;2023-06-26T09:59:02;29.10;68.20
16301;DHT22;8258;51.020;4.248;2023-06-26T10:01:30;29.50;66.20
16301;DHT22;8258;51.020;4.248;2023-06-26T10:03:57;28.90;68.80
16301;DHT22;8258;51.020;4.248;2023-06-26T10:06:31;29.20;66.20
16301;DHT22;8258;51.020;4.248;2023-06-26T10:09:00;29.40;64.50
16301;DHT22;8258;51.020;4.248;2023-06-26T10:11:33;28.80;64.30
16301;DHT22;8258;51.020;4.248;2023-06-26T10:14:03;28.50;68.00
16301;DHT22;8258;51.020;4.248;2023-06-26T10:16:31;29.30;65.60
16301;DHT22;8258;51.020;4.248;2023-06-26T10:19:03;30.10;61.30
16301;DHT22;8258;51.020;4.248;2023-06-26T10:21:33;31.30;56.70
16301;DHT22;8258;51.020;4.248;2023-06-26T10:24:03;31.60;55.00
16301;DHT22;8258;51.020;4.248;2023-06-26T10:26:36;31.30;54.00
16301;DHT22;8258;51.020;4.248;2023-06-26T10:29:05;31.50;53.70
16301;DHT22;8258;51.020;4.248;2023-06-26T10:31:34;32.00;54.40
16301;DHT22;8258;51.020;4.248;2023-06-26T10:34:02;32.10;52.60
16301;DHT22;8258;51.020;4.248;2023-06-26T10:36:31;31.20;52.40
16301;DHT22;8258;51.020;4.248;2023-06-26T10:39:03;29.50;53.60
16301;DHT22;8258;51.020;4.248;2023-06-26T10:41:36;28.50;55.30
16301;DHT22;8258;51.020;4.248;2023-06-26T10:44:08;28.50;56.50
16301;DHT22;8258;51.020;4.248;2023-06-26T10:46:49;27.80;57.70
16301;DHT22;8258;51.020;4.248;2023-06-26T10:49:19;28.50;56.40
16301;DHT22;8258;51.020;4.248;2023-06-26T10:51:47;29.40;55.70
16301;DHT22;8258;51.020;4.248;2023-06-26T10:54:16;29.60;55.10
16301;DHT22;8258;51.020;4.248;2023-06-26T10:56:45;29.40;56.40
16301;DHT22;8258;51.020;4.248;2023-06-26T10:59:17;29.60;52.20
16301;DHT22;8258;51.020;4.248;2023-06-26T11:01:45;30.60;54.00
16301;DHT22;8258;51.020;4.248;2023-06-26T11:04:14;31.90;47.90
16301;DHT22;8258;51.020;4.248;2023-06-26T11:06:45;31.60;48.00
16301;DHT22;8258;51.020;4.248;2023-06-26T11:09:17;31.70;46.50
16301;DHT22;8258;51.020;4.248;2023-06-26T11:12:04;30.80;44.60
16301;DHT22;8258;51.020;4.248;2023-06-26T11:14:34;30.00;47.60
16301;DHT22;8258;51.020;4.248;2023-06-26T11:17:05;29.00;50.40
16301;DHT22;8258;51.020;4.248;2023-06-26T11:19:32;28.90;52.60
16301;DHT22;8258;51.020;4.248;2023-06-26T11:22:02;29.60;53.00
16301;DHT22;8258;51.020;4.248;2023-06-26T11:24:31;29.10;52.50
16301;DHT22;8258;51.020;4.248;2023-06-26T11:27:01;27.80;52.90
16301;DHT22;8258;51.020;4.248;2023-06-26T11:29:31;27.00;57.70
16301;DHT22;8258;51.020;4.248;2023-06-26T11:32:00;28.30;53.80
16301;DHT22;8258;51.020;4.248;2023-06-26T11:34:30;29.70;52.10
16301;DHT22;8258;51.020;4.248;2023-06-26T11:36:57;31.00;47.50
16301;DHT22;8258;51.020;4.248;2023-06-26T11:39:26;31.60;47.40
16301;DHT22;8258;51.020;4.248;2023-06-26T11:41:53;32.50;44.60
16301;DHT22;8258;51.020;4.248;2023-06-26T11:44:21;33.40;41.90
16301;DHT22;8258;51.020;4.248;2023-06-26T11:46:52;33.10;40.30
16301;DHT22;8258;51.020;4.248;2023-06-26T11:49:21;31.00;44.20
16301;DHT22;8258;51.020;4.248;2023-06-26T11:51:51;30.90;44.30
16301;DHT22;8258;51.020;4.248;2023-06-26T11:54:24;31.60;45.10
16301;DHT22;8258;51.020;4.248;2023-06-26T11:56:56;31.30;40.70
16301;DHT22;8258;51.020;4.248;2023-06-26T11:59:23;30.70;43.50
16301;DHT22;8258;51.020;4.248;2023-06-26T12:01:52;30.70;45.50
16301;DHT22;8258;51.020;4.248;2023-06-26T12:04:20;31.00;43.80
16301;DHT22;8258;51.020;4.248;2023-06-26T12:06:49;31.00;43.50
16301;DHT22;8258;51.020;4.248;2023-06-26T12:09:18;29.50;44.60
16301;DHT22;8258;51.020;4.248;2023-06-26T12:11:47;28.40;44.00
16301;DHT22;8258;51.020;4.248;2023-06-26T12:14:15;27.60;47.50
16301;DHT22;8258;51.020;4.248;2023-06-26T12:16:44;28.00;47.70
16301;DHT22;8258;51.020;4.248;2023-06-26T12:19:12;30.10;48.00
16301;DHT22;8258;51.020;4.248;2023-06-26T12:21:47;30.50;42.40
16301;DHT22;8258;51.020;4.248;2023-06-26T12:24:18;29.80;43.70
16301;DHT22;8258;51.020;4.248;2023-06-26T12:26:48;29.90;42.20
16301;DHT22;8258;51.020;4.248;2023-06-26T12:29:18;30.40;42.20
16301;DHT22;8258;51.020;4.248;2023-06-26T12:31:48;30.60;40.50
16301;DHT22;8258;51.020;4.248;2023-06-26T12:34:19;31.60;39.80
16301;DHT22;8258;51.020;4.248;2023-06-26T12:36:48;30.40;40.60
16301;DHT22;8258;51.020;4.248;2023-06-26T12:39:17;29.20;43.30
16301;DHT22;8258;51.020;4.248;2023-06-26T12:41:45;28.30;44.60
16301;DHT22;8258;51.020;4.248;2023-06-26T12:44:19;28.10;45.00
16301;DHT22;8258;51.020;4.248;2023-06-26T12:46:48;27.90;45.20
16301;DHT22;8258;51.020;4.248;2023-06-26T12:49:17;27.60;48.10
16301;DHT22;8258;51.020;4.248;2023-06-26T12:51:45;28.00;47.80
16301;DHT22;8258;51.020;4.248;2023-06-26T12:54:12;29.10;43.80
16301;DHT22;8258;51.020;4.248;2023-06-26T12:56:39;30.10;44.50
16301;DHT22;8258;51.020;4.248;2023-06-26T12:59:06;30.50;41.90
16301;DHT22;8258;51.020;4.248;2023-06-26T13:01:32;31.00;41.10
16301;DHT22;8258;51.020;4.248;2023-06-26T13:03:59;31.20;40.40
16301;DHT22;8258;51.020;4.248;2023-06-26T13:06:28;30.20;39.90
16301;DHT22;8258;51.020;4.248;2023-06-26T13:08:55;28.40;42.60
16301;DHT22;8258;51.020;4.248;2023-06-26T13:11:22;27.50;45.80
16301;DHT22;8258;51.020;4.248;2023-06-26T13:13:48;26.80;46.30
16301;DHT22;8258;51.020;4.248;2023-06-26T13:16:16;26.40;49.20
16301;DHT22;8258;51.020;4.248;2023-06-26T13:18:44;26.10;51.20
16301;DHT22;8258;51.020;4.248;2023-06-26T13:21:11;26.30;49.20
16301;DHT22;8258;51.020;4.248;2023-06-26T13:23:39;26.10;49.90
16301;DHT22;8258;51.020;4.248;2023-06-26T13:26:06;27.20;48.30
16301;DHT22;8258;51.020;4.248;2023-06-26T13:28:33;28.60;47.40
16301;DHT22;8258;51.020;4.248;2023-06-26T13:31:00;29.00;45.90
16301;DHT22;8258;51.020;4.248;2023-06-26T13:33:27;28.10;47.10
16301;DHT22;8258;51.020;4.248;2023-06-26T13:35:54;27.30;46.20
16301;DHT22;8258;51.020;4.248;2023-06-26T13:38:21;26.90;48.20
16301;DHT22;8258;51.020;4.248;2023-06-26T13:40:51;26.40;48.50
16301;DHT22;8258;51.020;4.248;2023-06-26T13:43:21;26.40;52.40
16301;DHT22;8258;51.020;4.248;2023-06-26T13:45:48;26.70;50.40
16301;DHT22;8258;51.020;4.248;2023-06-26T13:48:15;28.10;49.00
16301;DHT22;8258;51.020;4.248;2023-06-26T13:50:42;29.20;44.90
16301;DHT22;8258;51.020;4.248;2023-06-26T13:53:09;30.50;44.80
16301;DHT22;8258;51.020;4.248;2023-06-26T13:55:36;31.10;41.20
16301;DHT22;8258;51.020;4.248;2023-06-26T13:58:05;29.40;43.50
16301;DHT22;8258;51.020;4.248;2023-06-26T14:00:33;28.70;46.80
16301;DHT22;8258;51.020;4.248;2023-06-26T14:03:01;28.70;45.40
16301;DHT22;8258;51.020;4.248;2023-06-26T14:05:28;29.20;44.20
16301;DHT22;8258;51.020;4.248;2023-06-26T14:07:56;29.90;43.80
16301;DHT22;8258;51.020;4.248;2023-06-26T14:10:23;30.60;45.00
16301;DHT22;8258;51.020;4.248;2023-06-26T14:12:50;30.40;43.60
16301;DHT22;8258;51.020;4.248;2023-06-26T14:15:18;30.30;42.30
16301;DHT22;8258;51.020;4.248;2023-06-26T14:17:45;29.20;41.90
16301;DHT22;8258;51.020;4.248;2023-06-26T14:20:16;28.00;46.80
16301;DHT22;8258;51.020;4.248;2023-06-26T14:22:45;27.50;47.00
16301;DHT22;8258;51.020;4.248;2023-06-26T14:25:13;27.40;48.00
16301;DHT22;8258;51.020;4.248;2023-06-26T14:27:40;27.10;47.10
16301;DHT22;8258;51.020;4.248;2023-06-26T14:30:08;27.40;47.60
16301;DHT22;8258;51.020;4.248;2023-06-26T14:32:36;28.00;46.50
16301;DHT22;8258;51.020;4.248;2023-06-26T14:35:04;28.60;44.70
16301;DHT22;8258;51.020;4.248;2023-06-26T14:37:31;28.10;44.60
16301;DHT22;8258;51.020;4.248;2023-06-26T14:39:58;27.60;47.40
16301;DHT22;8258;51.020;4.248;2023-06-26T14:42:25;27.50;47.10
16301;DHT22;8258;51.020;4.248;2023-06-26T14:44:52;27.10;47.30
16301;DHT22;8258;51.020;4.248;2023-06-26T14:47:19;27.20;46.40
16301;DHT22;8258;51.020;4.248;2023-06-26T14:49:47;27.10;47.30
16301;DHT22;8258;51.020;4.248;2023-06-26T14:52:14;27.10;47.90
16301;DHT22;8258;51.020;4.248;2023-06-26T14:54:41;27.30;47.80
16301;DHT22;8258;51.020;4.248;2023-06-26T14:57:09;28.60;47.20
16301;DHT22;8258;51.020;4.248;2023-06-26T14:59:36;29.80;45.30
16301;DHT22;8258;51.020;4.248;2023-06-26T15:02:03;30.00;41.80
16301;DHT22;8258;51.020;4.248;2023-06-26T15:04:31;28.90;43.70
16301;DHT22;8258;51.020;4.248;2023-06-26T15:07:00;28.20;44.40
16301;DHT22;8258;51.020;4.248;2023-06-26T15:09:27;28.00;45.30
16301;DHT22;8258;51.020;4.248;2023-06-26T15:11:54;27.40;45.50
16301;DHT22;8258;51.020;4.248;2023-06-26T15:14:20;27.00;48.70
16301;DHT22;8258;51.020;4.248;2023-06-26T15:16:47;26.90;49.80
16301;DHT22;8258;51.020;4.248;2023-06-26T15:19:14;27.00;48.60
16301;DHT22;8258;51.020;4.248;2023-06-26T15:21:41;27.90;49.60
16301;DHT22;8258;51.020;4.248;2023-06-26T15:24:10;27.90;48.80
16301;DHT22;8258;51.020;4.248;2023-06-26T15:26:37;27.60;49.20
16301;DHT22;8258;51.020;4.248;2023-06-26T15:29:04;27.80;50.20
16301;DHT22;8258;51.020;4.248;2023-06-26T15:31:31;27.80;50.00
16301;DHT22;8258;51.020;4.248;2023-06-26T15:34:00;27.30;49.70
16301;DHT22;8258;51.020;4.248;2023-06-26T15:36:27;26.40;50.90
16301;DHT22;8258;51.020;4.248;2023-06-26T15:38:54;25.80;53.30
16301;DHT22;8258;51.020;4.248;2023-06-26T15:41:23;25.60;55.70
16301;DHT22;8258;51.020;4.248;2023-06-26T15:43:50;25.40;56.20
16301;DHT22;8258;51.020;4.248;2023-06-26T15:46:17;25.20;56.00
16301;DHT22;8258;51.020;4.248;2023-06-26T15:48:44;25.10;57.60
16301;DHT22;8258;51.020;4.248;2023-06-26T15:51:13;25.00;58.10
16301;DHT22;8258;51.020;4.248;2023-06-26T15:53:43;24.80;57.70
16301;DHT22;8258;51.020;4.248;2023-06-26T15:56:10;24.60;57.80
16301;DHT22;8258;51.020;4.248;2023-06-26T15:58:39;24.50;59.80
16301;DHT22;8258;51.020;4.248;2023-06-26T16:01:08;24.50;60.70
16301;DHT22;8258;51.020;4.248;2023-06-26T16:03:35;24.50;63.10
16301;DHT22;8258;51.020;4.248;2023-06-26T16:06:02;24.60;62.90
16301;DHT22;8258;51.020;4.248;2023-06-26T16:08:29;24.70;62.70
16301;DHT22;8258;51.020;4.248;2023-06-26T16:10:56;24.50;60.80
16301;DHT22;8258;51.020;4.248;2023-06-26T16:13:23;24.50;63.20
16301;DHT22;8258;51.020;4.248;2023-06-26T16:15:52;24.50;64.40
16301;DHT22;8258;51.020;4.248;2023-06-26T16:18:19;24.20;66.00
16301;DHT22;8258;51.020;4.248;2023-06-26T16:20:46;24.10;70.00
16301;DHT22;8258;51.020;4.248;2023-06-26T16:23:13;24.10;70.90
16301;DHT22;8258;51.020;4.248;2023-06-26T16:25:40;24.10;71.80
16301;DHT22;8258;51.020;4.248;2023-06-26T16:28:07;23.90;75.10
16301;DHT22;8258;51.020;4.248;2023-06-26T16:30:34;23.70;76.60
16301;DHT22;8258;51.020;4.248;2023-06-26T16:33:03;23.40;82.30
16301;DHT22;8258;51.020;4.248;2023-06-26T16:35:30;23.30;85.40
16301;DHT22;8258;51.020;4.248;2023-06-26T16:38:00;23.50;87.90
16301;DHT22;8258;51.020;4.248;2023-06-26T16:40:27;23.70;87.00
16301;DHT22;8258;51.020;4.248;2023-06-26T16:42:55;23.80;87.00
16301;DHT22;8258;51.020;4.248;2023-06-26T16:45:22;23.70;86.40
16301;DHT22;8258;51.020;4.248;2023-06-26T16:47:49;23.50;88.00
16301;DHT22;8258;51.020;4.248;2023-06-26T16:50:17;23.50;90.20
16301;DHT22;8258;51.020;4.248;2023-06-26T16:52:45;23.40;90.00
16301;DHT22;8258;51.020;4.248;2023-06-26T16:55:12;23.50;90.20
16301;DHT22;8258;51.020;4.248;2023-06-26T16:57:39;23.70;90.10
16301;DHT22;8258;51.020;4.248;2023-06-26T17:00:06;23.50;90.40
16301;DHT22;8258;51.020;4.248;2023-06-26T17:02:33;23.60;90.90
16301;DHT22;8258;51.020;4.248;2023-06-26T17:05:00;23.20;91.00
16301;DHT22;8258;51.020;4.248;2023-06-26T17:07:28;23.10;91.50
16301;DHT22;8258;51.020;4.248;2023-06-26T17:09:55;23.00;91.10
16301;DHT22;8258;51.020;4.248;2023-06-26T17:12:22;22.90;90.80
16301;DHT22;8258;51.020;4.248;2023-06-26T17:14:51;22.60;91.80
16301;DHT22;8258;51.020;4.248;2023-06-26T17:17:18;22.30;93.00
16301;DHT22;8258;51.020;4.248;2023-06-26T17:19:47;22.40;93.60
16301;DHT22;8258;51.020;4.248;2023-06-26T17:22:13;22.30;93.90
16301;DHT22;8258;51.020;4.248;2023-06-26T17:24:42;22.20;94.50
16301;DHT22;8258;51.020;4.248;2023-06-26T17:27:09;22.20;96.00
16301;DHT22;8258;51.020;4.248;2023-06-26T17:29:37;22.30;97.30
16301;DHT22;8258;51.020;4.248;2023-06-26T17:32:05;22.20;99.10
16301;DHT22;8258;51.020;4.248;2023-06-26T17:34:32;22.20;99.90
16301;DHT22;8258;51.020;4.248;2023-06-26T17:36:59;22.30;99.90
16301;DHT22;8258;51.020;4.248;2023-06-26T17:39:26;22.30;99.90
16301;DHT22;8258;51.020;4.248;2023-06-26T17:41:54;22.30;99.90
16301;DHT22;8258;51.020;4.248;2023-06-26T17:44:22;22.30;99.50
16301;DHT22;8258;51.020;4.248;2023-06-26T17:46:53;21.80;99.20
16301;DHT22;8258;51.020;4.248;2023-06-26T17:49:20;21.70;99.90
16301;DHT22;8258;51.020;4.248;2023-06-26T17:51:47;21.80;99.90
16301;DHT22;8258;51.020;4.248;2023-06-26T17:54:14;21.90;99.90